createdAt,value
2017-12-02T00:01:07.950Z,81.70
2017-12-02T00:03:34.838Z,81.50
2017-12-02T00:06:01.846Z,81.00
2017-12-02T00:08:28.769Z,81.50
2017-12-02T00:10:55.749Z,82.00
2017-12-02T00:13:23.094Z,82.40
2017-12-02T00:15:50.049Z,82.40
2017-12-02T00:18:17.390Z,82.40
2017-12-02T00:20:44.305Z,82.40
2017-12-02T00:23:11.188Z,82.20
2017-12-02T00:25:38.095Z,81.90
2017-12-02T00:28:05.010Z,82.10
2017-12-02T00:30:31.936Z,82.10
2017-12-02T00:32:59.272Z,82.10
2017-12-02T00:35:26.196Z,82.10
2017-12-02T00:37:53.081Z,82.20
2017-12-02T00:40:20.381Z,82.60
2017-12-02T00:42:47.286Z,82.60
2017-12-02T00:45:14.593Z,82.40
2017-12-02T00:47:41.510Z,82.40
2017-12-02T00:50:08.430Z,82.70
2017-12-02T00:52:35.814Z,81.60
2017-12-02T00:55:02.742Z,81.50
2017-12-02T00:57:29.661Z,81.90
2017-12-02T00:59:56.655Z,82.00
2017-12-02T01:02:23.681Z,82.20
2017-12-02T01:04:50.970Z,83.00
2017-12-02T01:07:17.885Z,83.00
2017-12-02T01:09:44.786Z,82.40
2017-12-02T01:12:11.750Z,82.80
2017-12-02T01:14:38.677Z,82.80
2017-12-02T01:17:05.644Z,82.60
2017-12-02T01:19:32.569Z,82.40
2017-12-02T01:21:59.533Z,82.30
2017-12-02T01:24:26.433Z,82.30
2017-12-02T01:26:53.342Z,82.30
2017-12-02T01:29:20.628Z,82.00
2017-12-02T01:31:47.633Z,82.00
2017-12-02T01:34:14.522Z,81.80
2017-12-02T01:36:41.405Z,81.50
2017-12-02T01:39:08.380Z,81.60
2017-12-02T01:41:35.701Z,81.80
2017-12-02T01:44:02.673Z,81.80
2017-12-02T01:46:30.034Z,82.80
2017-12-02T01:48:57.361Z,83.10
2017-12-02T01:51:24.334Z,83.10
2017-12-02T01:53:51.244Z,82.30
2017-12-02T01:56:18.226Z,82.60
2017-12-02T01:58:45.148Z,82.80
2017-12-02T02:01:12.875Z,82.80
2017-12-02T02:03:39.821Z,82.70
2017-12-02T02:06:06.729Z,82.90
2017-12-02T02:08:33.878Z,83.20
2017-12-02T02:11:00.765Z,82.90
2017-12-02T02:13:27.765Z,83.10
2017-12-02T02:15:54.720Z,83.10
2017-12-02T02:18:21.759Z,83.00
2017-12-02T02:20:48.675Z,82.40
2017-12-02T02:23:15.586Z,82.30
2017-12-02T02:25:42.509Z,82.40
2017-12-02T02:28:09.853Z,82.80
2017-12-02T02:30:36.802Z,82.80
2017-12-02T02:33:03.755Z,82.90
2017-12-02T02:35:31.033Z,82.60
2017-12-02T02:37:58.054Z,82.60
2017-12-02T02:40:24.994Z,82.70
2017-12-02T02:42:51.937Z,82.60
2017-12-02T02:45:18.899Z,82.60
2017-12-02T02:47:46.186Z,82.60
2017-12-02T02:50:13.098Z,82.60
2017-12-02T02:52:40.406Z,82.60
2017-12-02T02:55:07.321Z,82.60
2017-12-02T02:57:34.241Z,82.70
2017-12-02T03:00:01.125Z,82.50
2017-12-02T03:02:28.125Z,82.90
2017-12-02T03:04:55.085Z,82.90
2017-12-02T03:07:22.437Z,83.00
2017-12-02T03:09:49.754Z,83.00
2017-12-02T03:12:16.641Z,83.00
2017-12-02T03:14:43.949Z,83.00
2017-12-02T03:17:10.834Z,83.00
2017-12-02T03:19:37.728Z,83.00
2017-12-02T03:22:04.644Z,83.10
2017-12-02T03:24:31.930Z,82.90
2017-12-02T03:26:58.833Z,82.90
2017-12-02T03:29:26.145Z,82.40
2017-12-02T03:31:53.025Z,82.40
2017-12-02T03:34:20.073Z,82.30
2017-12-02T03:36:46.962Z,82.00
2017-12-02T03:39:13.845Z,81.90
2017-12-02T03:41:40.753Z,81.90
2017-12-02T03:44:07.666Z,82.10
2017-12-02T03:46:35.276Z,82.10
2017-12-02T03:49:02.137Z,82.10
2017-12-02T03:51:29.049Z,81.90
2017-12-02T03:53:55.933Z,81.80
2017-12-02T03:56:22.864Z,81.70
2017-12-02T03:58:49.769Z,81.50
2017-12-02T04:01:16.670Z,81.60
2017-12-02T04:03:43.590Z,81.90
2017-12-02T04:06:10.473Z,81.60
2017-12-02T04:08:37.413Z,81.50
2017-12-02T04:11:04.304Z,81.40
2017-12-02T04:13:31.193Z,81.40
2017-12-02T04:15:58.116Z,81.60
2017-12-02T04:18:24.999Z,81.80
2017-12-02T04:20:51.921Z,81.90
2017-12-02T04:23:18.836Z,82.10
2017-12-02T04:25:45.752Z,82.20
2017-12-02T04:28:13.078Z,82.60
2017-12-02T04:30:39.968Z,82.60
2017-12-02T04:33:06.852Z,81.90
2017-12-02T04:35:33.778Z,81.90
2017-12-02T04:38:00.665Z,81.90
2017-12-02T04:40:27.549Z,82.40
2017-12-02T04:42:54.469Z,82.90
2017-12-02T04:45:21.385Z,83.00
2017-12-02T04:47:48.309Z,82.80
2017-12-02T04:50:15.226Z,82.60
2017-12-02T04:52:42.117Z,82.60
2017-12-02T04:55:09.038Z,82.90
2017-12-02T04:57:35.948Z,83.10
2017-12-02T05:00:02.852Z,82.70
2017-12-02T05:02:29.750Z,83.10
2017-12-02T05:04:57.054Z,83.30
2017-12-02T05:07:23.945Z,83.30
2017-12-02T05:09:51.254Z,83.10
2017-12-02T05:12:18.169Z,83.10
2017-12-02T05:14:45.079Z,82.70
2017-12-02T05:17:11.997Z,83.10
2017-12-02T05:19:38.886Z,83.50
2017-12-02T05:22:06.198Z,83.70
2017-12-02T05:24:33.097Z,83.70
2017-12-02T05:27:00.122Z,83.30
2017-12-02T05:29:27.005Z,83.60
2017-12-02T05:31:53.894Z,83.80
2017-12-02T05:34:20.810Z,84.00
2017-12-02T05:36:47.703Z,83.80
2017-12-02T05:39:14.614Z,83.80
2017-12-02T05:41:41.497Z,84.00
2017-12-02T05:44:08.816Z,83.40
2017-12-02T05:46:36.543Z,83.30
2017-12-02T05:49:03.453Z,83.50
2017-12-02T05:51:30.369Z,83.60
2017-12-02T05:53:57.292Z,83.50
2017-12-02T05:56:24.183Z,83.10
2017-12-02T05:58:51.075Z,83.10
2017-12-02T06:01:17.998Z,83.30
2017-12-02T06:03:45.282Z,84.30
2017-12-02T06:06:12.205Z,84.30
2017-12-02T06:08:39.130Z,83.90
2017-12-02T06:11:06.041Z,83.60
2017-12-02T06:13:32.925Z,83.40
2017-12-02T06:16:00.246Z,83.60
2017-12-02T06:18:27.147Z,83.60
2017-12-02T06:20:54.430Z,84.00
2017-12-02T06:23:21.350Z,84.10
2017-12-02T06:25:48.238Z,83.90
2017-12-02T06:28:15.166Z,84.00
2017-12-02T06:30:42.057Z,83.80
2017-12-02T06:33:08.982Z,83.70
2017-12-02T06:35:35.865Z,83.50
2017-12-02T06:38:03.156Z,83.90
2017-12-02T06:40:30.093Z,83.90
2017-12-02T06:42:56.991Z,84.00
2017-12-02T06:45:23.886Z,83.90
2017-12-02T06:47:50.801Z,83.30
2017-12-02T06:50:18.134Z,83.50
2017-12-02T06:52:45.397Z,83.50
2017-12-02T06:55:12.286Z,83.50
2017-12-02T06:57:39.203Z,83.50
2017-12-02T07:00:06.518Z,83.30
2017-12-02T07:02:33.414Z,83.30
2017-12-02T07:05:00.337Z,83.40
2017-12-02T07:07:27.626Z,83.30
2017-12-02T07:09:55.495Z,83.30
2017-12-02T07:12:22.449Z,83.50
2017-12-02T07:14:49.346Z,83.50
2017-12-02T07:17:16.256Z,83.90
2017-12-02T07:19:43.177Z,83.70
2017-12-02T07:22:10.065Z,83.90
2017-12-02T07:24:36.954Z,84.10
2017-12-02T07:27:03.870Z,84.40
2017-12-02T07:29:30.757Z,84.40
2017-12-02T07:31:57.677Z,84.20
2017-12-02T07:34:24.967Z,83.50
2017-12-02T07:36:51.860Z,83.50
2017-12-02T07:39:18.786Z,83.40
2017-12-02T07:41:45.681Z,83.10
2017-12-02T07:44:12.668Z,82.70
2017-12-02T07:46:39.697Z,82.90
2017-12-02T07:49:06.569Z,83.00
2017-12-02T07:51:33.510Z,82.70
2017-12-02T07:54:00.421Z,82.30
2017-12-02T07:56:27.354Z,82.60
2017-12-02T07:58:54.250Z,82.90
2017-12-02T08:01:21.162Z,83.00
2017-12-02T08:03:48.086Z,83.00
2017-12-02T08:06:15.388Z,82.80
2017-12-02T08:08:42.309Z,82.80
2017-12-02T08:11:09.210Z,82.20
2017-12-02T08:13:36.206Z,82.40
2017-12-02T08:16:03.121Z,83.00
2017-12-02T08:18:30.471Z,83.40
2017-12-02T08:20:57.787Z,83.80
2017-12-02T08:23:24.670Z,83.80
2017-12-02T08:25:51.979Z,83.90
2017-12-02T08:28:18.894Z,83.90
2017-12-02T08:30:45.808Z,83.80
2017-12-02T08:33:13.149Z,83.00
2017-12-02T08:35:40.061Z,83.00
2017-12-02T08:38:06.974Z,82.60
2017-12-02T08:40:34.253Z,81.80
2017-12-02T08:43:01.188Z,81.80
2017-12-02T08:45:28.073Z,81.60
2017-12-02T08:47:54.986Z,80.90
2017-12-02T08:50:21.873Z,80.50
2017-12-02T08:52:48.757Z,80.40
2017-12-02T08:55:16.065Z,80.50
2017-12-02T08:57:42.993Z,80.50
2017-12-02T09:00:09.898Z,80.30
2017-12-02T09:02:37.203Z,80.10
2017-12-02T09:05:04.131Z,80.00
2017-12-02T09:07:31.046Z,80.30
2017-12-02T09:09:58.330Z,81.30
2017-12-02T09:12:25.241Z,81.30
2017-12-02T09:14:52.556Z,81.10
2017-12-02T09:17:19.444Z,81.10
2017-12-02T09:19:46.729Z,81.30
2017-12-02T09:22:13.641Z,81.30
2017-12-02T09:24:40.926Z,81.70
2017-12-02T09:27:07.870Z,81.70
2017-12-02T09:29:34.791Z,81.80
2017-12-02T09:32:02.085Z,81.60
2017-12-02T09:34:29.033Z,81.60
2017-12-02T09:36:56.308Z,81.40
2017-12-02T09:39:23.237Z,81.50
2017-12-02T09:41:50.129Z,81.50
2017-12-02T09:44:17.449Z,80.80
2017-12-02T09:46:44.340Z,80.80
2017-12-02T09:49:11.623Z,81.40
2017-12-02T09:51:38.549Z,81.40
2017-12-02T09:54:05.437Z,81.60
2017-12-02T09:56:32.431Z,81.60
2017-12-02T09:58:59.768Z,80.80
2017-12-02T10:01:26.658Z,80.80
2017-12-02T10:03:53.552Z,80.90
2017-12-02T10:06:20.459Z,81.00
2017-12-02T10:08:47.365Z,81.50
2017-12-02T10:11:14.683Z,81.00
2017-12-02T10:13:41.573Z,81.00
2017-12-02T10:16:08.854Z,81.00
2017-12-02T10:18:35.786Z,81.00
2017-12-02T10:21:02.674Z,81.10
2017-12-02T10:23:29.562Z,80.80
2017-12-02T10:25:56.878Z,80.10
2017-12-02T10:28:23.762Z,80.10
2017-12-02T10:30:51.042Z,79.80
2017-12-02T10:33:17.968Z,79.70
2017-12-02T10:35:44.869Z,79.60
2017-12-02T10:38:11.753Z,79.90
2017-12-02T10:40:39.061Z,80.70
2017-12-02T10:43:06.086Z,80.70
2017-12-02T10:45:32.973Z,80.70
2017-12-02T10:47:59.905Z,80.40
2017-12-02T10:50:26.794Z,79.80
2017-12-02T10:52:53.704Z,80.00
2017-12-02T10:55:20.619Z,79.50
2017-12-02T10:57:47.517Z,80.10
2017-12-02T11:00:14.836Z,80.20
2017-12-02T11:02:41.727Z,80.20
2017-12-02T11:05:09.021Z,79.20
2017-12-02T11:07:36.002Z,79.20
2017-12-02T11:10:02.891Z,79.20
2017-12-02T11:12:29.852Z,80.20
2017-12-02T11:14:57.137Z,80.30
2017-12-02T11:17:24.022Z,80.30
2017-12-02T11:19:51.305Z,80.10
2017-12-02T11:22:18.242Z,80.10
2017-12-02T11:24:45.124Z,79.70
2017-12-02T11:27:12.196Z,79.60
2017-12-02T11:29:39.526Z,79.10
2017-12-02T11:32:06.414Z,79.10
2017-12-02T11:34:33.737Z,79.20
2017-12-02T11:37:00.625Z,79.20
2017-12-02T11:39:27.509Z,79.20
2017-12-02T11:41:54.422Z,79.50
2017-12-02T11:44:21.353Z,79.20
2017-12-02T11:46:48.662Z,79.20
2017-12-02T11:49:15.557Z,79.20
2017-12-02T11:51:42.869Z,79.00
2017-12-02T11:54:09.761Z,79.00
2017-12-02T11:56:36.666Z,79.30
2017-12-02T11:59:03.633Z,79.30
2017-12-02T12:01:30.918Z,79.20
2017-12-02T12:03:57.866Z,79.20
2017-12-02T12:06:24.888Z,79.70
2017-12-02T12:08:52.165Z,80.90
2017-12-02T12:11:19.053Z,80.90
2017-12-02T12:13:46.062Z,81.10
2017-12-02T12:16:12.961Z,81.20
2017-12-02T12:18:39.918Z,80.80
2017-12-02T12:21:06.844Z,81.10
2017-12-02T12:23:33.905Z,80.80
2017-12-02T12:26:00.804Z,81.00
2017-12-02T12:28:27.709Z,81.10
2017-12-02T12:30:55.035Z,81.20
2017-12-02T12:33:22.010Z,81.20
2017-12-02T12:35:49.357Z,80.70
2017-12-02T12:38:16.305Z,80.70
2017-12-02T12:40:43.197Z,81.00
2017-12-02T12:43:10.086Z,80.80
2017-12-02T12:45:37.044Z,80.10
2017-12-02T12:48:03.930Z,79.80
2017-12-02T12:50:30.841Z,80.30
2017-12-02T12:52:58.207Z,79.70
2017-12-02T12:55:25.085Z,79.70
2017-12-02T12:57:52.077Z,79.60
2017-12-02T13:00:19.030Z,79.60
2017-12-02T13:02:45.996Z,79.30
2017-12-02T13:05:13.334Z,79.40
2017-12-02T13:07:40.650Z,79.90
2017-12-02T13:10:07.541Z,79.90
2017-12-02T13:12:34.882Z,79.60
2017-12-02T13:15:01.851Z,79.60
2017-12-02T13:17:29.139Z,79.60
2017-12-02T13:19:56.060Z,79.60
2017-12-02T13:22:23.079Z,78.80
2017-12-02T13:24:50.124Z,78.60
2017-12-02T13:27:17.039Z,78.60
2017-12-02T13:29:44.017Z,79.30
2017-12-02T13:32:10.902Z,79.10
2017-12-02T13:34:37.853Z,78.80
2017-12-02T13:37:04.865Z,79.10
2017-12-02T13:39:32.155Z,78.70
2017-12-02T13:41:59.070Z,78.70
2017-12-02T13:44:26.051Z,78.50
2017-12-02T13:46:53.377Z,78.60
2017-12-02T13:49:20.728Z,78.90
2017-12-02T13:51:48.010Z,78.90
2017-12-02T13:54:14.896Z,78.90
2017-12-02T13:56:41.907Z,78.80
2017-12-02T13:59:08.797Z,78.60
2017-12-02T14:01:35.757Z,78.70
2017-12-02T14:04:02.699Z,78.50
2017-12-02T14:06:29.635Z,78.60
2017-12-02T14:08:56.639Z,78.70
2017-12-02T14:11:23.829Z,78.80
2017-12-02T14:13:50.799Z,78.70
2017-12-02T14:16:17.836Z,78.70
2017-12-02T14:18:44.741Z,78.80
2017-12-02T14:21:11.745Z,78.80
2017-12-02T14:23:39.093Z,78.80
2017-12-02T14:26:06.083Z,78.80
2017-12-02T14:28:32.992Z,78.90
2017-12-02T14:31:00.306Z,78.60
2017-12-02T14:33:27.207Z,78.60
2017-12-02T14:35:54.543Z,78.30
2017-12-02T14:38:21.498Z,78.20
2017-12-02T14:40:48.895Z,78.10
2017-12-02T14:43:15.899Z,78.10
2017-12-02T14:45:42.794Z,77.90
2017-12-02T14:48:09.685Z,77.70
2017-12-02T14:50:36.602Z,77.10
2017-12-02T14:53:03.493Z,77.10
2017-12-02T14:55:30.837Z,76.60
2017-12-02T14:57:57.775Z,76.60
2017-12-02T15:00:24.766Z,76.00
2017-12-02T15:02:51.673Z,76.30
2017-12-02T15:05:18.614Z,76.80
2017-12-02T15:07:45.566Z,76.40
2017-12-02T15:10:12.552Z,76.60
2017-12-02T15:12:39.461Z,77.00
2017-12-02T15:15:06.745Z,78.00
2017-12-02T15:17:33.662Z,78.00
2017-12-02T15:20:00.953Z,78.60
2017-12-02T15:22:27.857Z,78.60
2017-12-02T15:24:54.806Z,79.00
2017-12-02T15:27:21.746Z,79.20
2017-12-02T15:29:48.634Z,79.40
2017-12-02T15:32:15.556Z,79.50
2017-12-02T15:34:42.834Z,79.90
2017-12-02T15:37:09.761Z,79.90
2017-12-02T15:39:36.785Z,80.00
2017-12-02T15:42:03.733Z,79.70
2017-12-02T15:44:30.622Z,79.70
2017-12-02T15:46:57.565Z,79.60
2017-12-02T15:49:24.444Z,79.90
2017-12-02T15:51:51.361Z,79.90
2017-12-02T15:54:18.302Z,80.00
2017-12-02T15:56:45.249Z,80.10
2017-12-02T15:59:12.141Z,80.10
2017-12-02T16:01:39.552Z,80.30
2017-12-02T16:04:06.577Z,80.30
2017-12-02T16:06:33.867Z,80.80
2017-12-02T16:09:00.764Z,80.80
2017-12-02T16:11:27.691Z,80.60
2017-12-02T16:13:54.650Z,80.50
2017-12-02T16:16:21.640Z,80.30
2017-12-02T16:18:48.588Z,80.30
2017-12-02T16:21:15.462Z,80.20
2017-12-02T16:23:42.350Z,80.00
2017-12-02T16:26:09.661Z,80.50
2017-12-02T16:28:36.574Z,80.50
2017-12-02T16:31:03.524Z,80.50
2017-12-02T16:33:30.410Z,80.10
2017-12-02T16:35:57.353Z,79.90
2017-12-02T16:38:24.326Z,80.30
2017-12-02T16:40:51.622Z,80.40
2017-12-02T16:43:18.545Z,80.40
2017-12-02T16:45:45.857Z,80.10
2017-12-02T16:48:12.820Z,80.10
2017-12-02T16:50:39.714Z,80.10
2017-12-02T16:53:06.765Z,80.10
2017-12-02T16:55:34.055Z,79.90
2017-12-02T16:58:00.938Z,79.90
2017-12-02T17:00:28.249Z,79.70
2017-12-02T17:02:55.177Z,79.70
2017-12-02T17:05:22.093Z,79.40
2017-12-02T17:07:48.998Z,79.60
2017-12-02T17:10:15.996Z,79.50
2017-12-02T17:12:42.901Z,79.40
2017-12-02T17:15:09.849Z,79.70
2017-12-02T17:17:36.738Z,79.70
2017-12-02T17:20:03.667Z,79.90
2017-12-02T17:22:30.549Z,80.00
2017-12-02T17:24:57.465Z,79.90
2017-12-02T17:27:24.573Z,80.00
2017-12-02T17:29:51.529Z,80.00
2017-12-02T17:32:18.982Z,79.90
2017-12-02T17:34:45.888Z,79.90
2017-12-02T17:37:12.806Z,80.10
2017-12-02T17:39:39.763Z,80.20
2017-12-02T17:42:06.649Z,80.50
2017-12-02T17:44:33.569Z,80.60
2017-12-02T17:47:00.461Z,80.80
2017-12-02T17:49:27.349Z,80.80
2017-12-02T17:51:54.280Z,80.60
2017-12-02T17:54:21.193Z,80.50
2017-12-02T17:56:48.084Z,80.90
2017-12-02T17:59:15.005Z,80.80
2017-12-02T18:01:42.285Z,80.60
2017-12-02T18:04:09.172Z,80.60
2017-12-02T18:06:36.818Z,80.50
2017-12-02T18:09:03.705Z,80.30
2017-12-02T18:11:30.986Z,80.60
2017-12-02T18:13:57.989Z,80.60
2017-12-02T18:16:24.877Z,80.60
2017-12-02T18:18:51.829Z,80.60
2017-12-02T18:21:18.717Z,80.80
2017-12-02T18:23:45.686Z,80.60
2017-12-02T18:26:12.997Z,80.90
2017-12-02T18:28:39.882Z,80.90
2017-12-02T18:31:07.246Z,80.80
2017-12-02T18:33:34.588Z,80.60
2017-12-02T18:36:01.538Z,80.60
2017-12-02T18:38:28.482Z,80.90
2017-12-02T18:40:55.801Z,80.80
2017-12-02T18:43:22.688Z,80.80
2017-12-02T18:45:50.043Z,81.00
2017-12-02T18:48:17.317Z,80.80
2017-12-02T18:50:44.349Z,80.80
2017-12-02T18:53:11.705Z,80.50
2017-12-02T18:55:39.049Z,80.50
2017-12-02T18:58:05.970Z,80.50
2017-12-02T19:00:32.941Z,80.40
2017-12-02T19:02:59.884Z,80.50
2017-12-02T19:05:26.864Z,80.80
2017-12-02T19:07:54.193Z,80.60
2017-12-02T19:10:21.084Z,80.60
2017-12-02T19:12:48.091Z,80.60
2017-12-02T19:15:15.185Z,80.40
2017-12-02T19:17:42.102Z,80.00
2017-12-02T19:20:09.480Z,79.60
2017-12-02T19:22:36.385Z,79.60
2017-12-02T19:25:03.313Z,79.00
2017-12-02T19:27:30.280Z,78.80
2017-12-02T19:29:57.156Z,79.00
2017-12-02T19:32:24.094Z,79.70
2017-12-02T19:34:50.988Z,80.00
2017-12-02T19:37:17.874Z,79.90
2017-12-02T19:39:45.186Z,79.20
2017-12-02T19:42:12.101Z,79.20
2017-12-02T19:44:38.990Z,78.90
2017-12-02T19:47:05.954Z,78.70
2017-12-02T19:49:33.002Z,78.50
2017-12-02T19:51:59.950Z,78.20
2017-12-02T19:54:26.895Z,77.80
2017-12-02T19:56:53.782Z,77.90
2017-12-02T19:59:20.669Z,78.30
2017-12-02T20:01:47.587Z,78.60
2017-12-02T20:04:14.574Z,78.90
2017-12-02T20:06:41.490Z,79.30
2017-12-02T20:09:08.421Z,79.50
2017-12-02T20:11:35.310Z,79.40
2017-12-02T20:14:02.300Z,79.30
2017-12-02T20:16:29.217Z,79.30
2017-12-02T20:18:56.505Z,78.50
2017-12-02T20:21:23.405Z,78.50
2017-12-02T20:23:50.309Z,77.60
2017-12-02T20:26:17.237Z,75.00
2017-12-02T20:28:44.120Z,74.10
2017-12-02T20:31:11.037Z,74.20
2017-12-02T20:33:37.953Z,75.00
2017-12-02T20:36:05.237Z,76.10
2017-12-02T20:38:32.234Z,76.10
2017-12-02T20:40:59.120Z,76.50
2017-12-02T20:43:26.034Z,76.90
2017-12-02T20:45:53.341Z,77.90
2017-12-02T20:48:20.229Z,77.90
2017-12-02T20:50:47.546Z,78.50
2017-12-02T20:53:14.433Z,78.50
2017-12-02T20:55:41.782Z,78.80
2017-12-02T20:58:08.731Z,78.80
2017-12-02T21:00:35.629Z,78.80
2017-12-02T21:03:02.547Z,78.80
2017-12-02T21:05:29.445Z,78.50
2017-12-02T21:07:56.362Z,78.40
2017-12-02T21:10:23.249Z,78.00
2017-12-02T21:12:50.172Z,78.00
2017-12-02T21:15:17.122Z,78.60
2017-12-02T21:17:44.093Z,79.10
2017-12-02T21:20:11.083Z,79.30
2017-12-02T21:22:38.003Z,79.30
2017-12-02T21:25:05.320Z,79.20
2017-12-02T21:27:32.211Z,79.20
2017-12-02T21:29:59.525Z,79.60
2017-12-02T21:32:26.420Z,79.60
2017-12-02T21:34:53.364Z,79.60
2017-12-02T21:37:20.261Z,79.60
2017-12-02T21:39:47.197Z,79.50
2017-12-02T21:42:14.277Z,79.20
2017-12-02T21:44:41.189Z,79.10
2017-12-02T21:47:08.102Z,79.20
2017-12-02T21:49:35.006Z,79.70
2017-12-02T21:52:01.964Z,79.80
2017-12-02T21:54:29.253Z,79.40
2017-12-02T21:56:56.356Z,79.40
2017-12-02T21:59:23.304Z,79.60
2017-12-02T22:01:50.201Z,79.70
2017-12-02T22:04:17.109Z,79.70
2017-12-02T22:06:44.411Z,79.40
2017-12-02T22:09:11.330Z,79.40
2017-12-02T22:11:38.222Z,79.30
2017-12-02T22:14:05.146Z,79.10
2017-12-02T22:16:32.025Z,78.60
2017-12-02T22:18:58.919Z,78.80
2017-12-02T22:21:25.826Z,78.90
2017-12-02T22:23:52.713Z,78.90
2017-12-02T22:26:19.634Z,78.90
2017-12-02T22:28:46.914Z,79.20
2017-12-02T22:31:13.794Z,79.20
2017-12-02T22:33:40.709Z,79.00
2017-12-02T22:36:07.613Z,78.90
2017-12-02T22:38:34.930Z,78.30
2017-12-02T22:41:01.812Z,78.30
2017-12-02T22:43:29.117Z,79.20
2017-12-02T22:45:56.017Z,79.20
2017-12-02T22:48:23.329Z,79.30
2017-12-02T22:50:50.223Z,79.30
2017-12-02T22:53:17.569Z,79.30
2017-12-02T22:55:44.890Z,78.50
2017-12-02T22:58:11.774Z,78.50
2017-12-02T23:00:39.070Z,78.00
2017-12-02T23:03:05.980Z,78.00
2017-12-02T23:05:33.275Z,78.20
2017-12-02T23:08:00.176Z,78.20
2017-12-02T23:10:27.534Z,76.50
2017-12-02T23:12:54.838Z,75.40
2017-12-02T23:15:21.745Z,75.40
2017-12-02T23:17:48.664Z,74.10
2017-12-02T23:20:15.569Z,72.80
2017-12-02T23:22:42.494Z,72.70
2017-12-02T23:25:09.381Z,72.70
2017-12-02T23:27:36.350Z,73.10
2017-12-02T23:30:03.304Z,75.00
2017-12-02T23:32:30.647Z,76.60
2017-12-02T23:34:57.601Z,76.60
2017-12-02T23:37:24.544Z,77.00
2017-12-02T23:39:51.473Z,77.10
2017-12-02T23:42:18.367Z,77.30
2017-12-02T23:44:45.281Z,77.00
2017-12-02T23:47:12.192Z,75.00
2017-12-02T23:49:39.081Z,73.80
2017-12-02T23:52:06.432Z,72.80
2017-12-02T23:54:33.340Z,72.80
2017-12-02T23:57:00.248Z,73.30
2017-12-02T23:59:27.141Z,72.60
